Time;durP1;ratioP1;P1;durP2;ratioP2;P2;SDS_P1;SDS_P2;PMS_P1;PMS_P2;Temp;Humidity;BMP_temperature;BMP_pressure;BME280_temperature;BME280_humidity;BME280_pressure;Samples;Min_cycle;Max_cycle;Signal;HPM_P1;HPM_P2
2022/04/17 00:01:49;;;;;;;12.37;8.70;;;;;;;4.15;74.27;103523.56;5050095;28;20741;-69
2022/04/17 00:04:15;;;;;;;13.97;9.60;;;;;;;4.13;74.45;103536.84;5049250;28;20210;-69
2022/04/17 00:06:41;;;;;;;13.63;9.50;;;;;;;4.00;74.38;103523.88;5067567;28;20278;-69
2022/04/17 00:09:07;;;;;;;13.00;9.17;;;;;;;3.96;74.54;103526.91;5069683;28;20189;-69
2022/04/17 00:11:34;;;;;;;12.13;9.43;;;;;;;3.93;73.98;103522.44;5057654;28;20654;-70
2022/04/17 00:13:59;;;;;;;14.93;9.93;;;;;;;3.86;74.38;103515.03;5049453;28;20186;-69
2022/04/17 00:16:25;;;;;;;12.03;9.37;;;;;;;3.81;74.61;103516.28;5049089;28;20255;-69
2022/04/17 00:18:50;;;;;;;11.93;8.90;;;;;;;3.84;74.84;103508.97;5046794;28;20204;-70
2022/04/17 00:21:16;;;;;;;13.00;8.73;;;;;;;3.79;75.14;103509.28;5049431;28;20189;-69
2022/04/17 00:23:44;;;;;;;9.83;8.63;;;;;;;3.77;74.74;103508.28;5048988;28;20273;-70
2022/04/17 00:26:10;;;;;;;13.13;9.60;;;;;;;3.65;75.06;103502.13;5049304;28;20296;-69
2022/04/17 00:28:35;;;;;;;11.67;8.93;;;;;;;3.55;75.38;103500.38;5048191;28;20289;-69
2022/04/17 00:31:01;;;;;;;11.40;8.80;;;;;;;3.54;76.00;103497.75;5049091;28;20221;-70
2022/04/17 00:33:26;;;;;;;12.27;9.33;;;;;;;3.50;75.91;103498.22;5046754;28;20658;-70
2022/04/17 00:35:52;;;;;;;13.10;9.60;;;;;;;3.47;75.45;103497.94;5049006;28;20304;-69
2022/04/17 00:38:17;;;;;;;14.90;9.73;;;;;;;3.39;74.89;103491.28;5049055;28;20227;-69
2022/04/17 00:40:42;;;;;;;13.33;9.60;;;;;;;3.25;76.87;103501.78;5046167;28;20186;-69
2022/04/17 00:43:32;;;;;;;15.07;10.30;;;;;;;3.28;77.03;103486.91;5047571;28;20193;-69
2022/04/17 00:45:58;;;;;;;17.67;10.23;;;;;;;3.31;77.96;103487.19;5048905;28;20210;-69
2022/04/17 00:48:24;;;;;;;20.87;13.33;;;;;;;3.28;76.52;103489.44;5049187;28;20761;-69
2022/04/17 00:50:51;;;;;;;19.53;12.77;;;;;;;3.29;77.32;103487.03;5047227;28;20196;-69
2022/04/17 00:53:18;;;;;;;20.07;12.53;;;;;;;3.04;77.85;103492.25;5048568;28;20193;-69
2022/04/17 00:55:46;;;;;;;18.90;12.50;;;;;;;3.09;77.99;103491.03;5046917;28;20236;-69
2022/04/17 00:58:11;;;;;;;21.90;14.33;;;;;;;3.02;77.66;103486.16;5049154;28;20720;-69
2022/04/17 01:00:37;;;;;;;26.17;15.60;;;;;;;3.00;76.97;103491.09;5048624;28;20186;-70
2022/04/17 01:03:02;;;;;;;24.20;14.37;;;;;;;2.91;76.80;103486.81;5048989;28;20186;-69
2022/04/17 01:05:27;;;;;;;23.77;14.80;;;;;;;2.97;77.51;103480.69;5047165;28;20209;-69
2022/04/17 01:07:53;;;;;;;26.57;14.90;;;;;;;2.96;77.39;103483.06;5047509;28;20324;-69
2022/04/17 01:10:19;;;;;;;25.67;15.13;;;;;;;2.86;77.76;103483.88;5048763;28;20265;-69
2022/04/17 01:12:45;;;;;;;26.47;15.67;;;;;;;2.80;77.06;103483.28;5048457;28;20231;-70
2022/04/17 01:15:11;;;;;;;29.27;17.60;;;;;;;2.87;77.13;103479.69;5048980;28;20205;-70
2022/04/17 01:17:36;;;;;;;31.43;18.50;;;;;;;2.76;77.20;103481.22;5049007;28;20214;-69
2022/04/17 01:20:03;;;;;;;30.63;17.93;;;;;;;2.62;77.92;103479.06;5064723;28;20220;-68
2022/04/17 01:22:29;;;;;;;36.27;19.83;;;;;;;2.71;78.13;103479.03;5045945;28;20194;-69
2022/04/17 01:27:38;;;;;;;48.57;24.23;;;;;;;2.65;78.01;103478.44;5048955;28;20544;-69
2022/04/17 01:30:04;;;;;;;46.83;23.63;;;;;;;2.68;78.42;103481.28;5048718;28;20193;-69
2022/04/17 01:32:29;;;;;;;59.47;30.40;;;;;;;2.58;78.45;103481.16;5049029;28;20189;-69
2022/04/17 01:34:54;;;;;;;68.03;31.23;;;;;;;2.49;79.57;103480.31;5063047;28;20624;-69
2022/04/17 01:37:20;;;;;;;71.80;31.67;;;;;;;2.49;78.27;103482.84;5042836;28;20819;-69
2022/04/17 01:39:46;;;;;;;67.30;31.03;;;;;;;2.38;79.49;103475.88;5048240;28;20668;-70
2022/04/17 01:42:12;;;;;;;64.33;30.23;;;;;;;2.38;79.66;103470.81;5048777;28;20190;-70
2022/04/17 01:44:38;;;;;;;62.80;29.53;;;;;;;2.39;79.90;103470.97;5046749;28;20213;-70
2022/04/17 01:47:04;;;;;;;50.57;25.00;;;;;;;2.37;79.80;103463.97;5048587;28;20213;-70
2022/04/17 01:49:29;;;;;;;55.43;26.07;;;;;;;2.38;79.70;103461.59;5047430;28;20201;-69
2022/04/17 01:51:55;;;;;;;46.90;25.30;;;;;;;2.30;79.96;103454.94;5047931;28;20683;-69
2022/04/17 01:54:22;;;;;;;44.60;25.80;;;;;;;2.37;79.52;103457.31;5048320;28;20229;-70
2022/04/17 01:56:48;;;;;;;51.00;25.40;;;;;;;2.30;79.59;103462.50;5048116;28;20194;-70
2022/04/17 01:59:14;;;;;;;48.47;23.70;;;;;;;2.20;80.56;103457.34;5048532;28;20178;-70
2022/04/17 02:01:40;;;;;;;45.83;23.77;;;;;;;2.18;80.49;103458.84;5046697;28;20584;-70
2022/04/17 02:04:07;;;;;;;44.17;24.00;;;;;;;2.15;79.92;103450.09;5045728;28;20190;-70
2022/04/17 02:06:33;;;;;;;42.47;22.27;;;;;;;2.13;80.99;103451.56;5049375;28;20210;-69
2022/04/17 02:08:59;;;;;;;41.23;22.03;;;;;;;2.10;81.15;103456.31;5050609;28;20713;-69
2022/04/17 02:11:25;;;;;;;41.43;21.53;;;;;;;2.13;80.66;103449.94;5051707;28;20185;-70
2022/04/17 02:13:51;;;;;;;38.23;20.60;;;;;;;2.01;81.85;103446.25;5051516;28;20190;-70
2022/04/17 02:16:17;;;;;;;29.87;19.60;;;;;;;2.05;81.69;103449.94;5049613;28;20296;-70
2022/04/17 02:18:49;;;;;;;33.80;18.80;;;;;;;1.97;82.61;103448.34;5043329;28;20193;-69
2022/04/17 02:21:16;;;;;;;31.67;18.90;;;;;;;2.05;82.89;103445.78;5051824;28;20235;-70
2022/04/17 02:23:43;;;;;;;31.93;17.10;;;;;;;2.02;82.12;103437.03;5049981;28;20619;-70
2022/04/17 02:26:09;;;;;;;28.57;17.17;;;;;;;1.97;81.93;103429.00;5050047;28;20214;-70
2022/04/17 02:28:37;;;;;;;28.53;17.47;;;;;;;2.01;82.43;103426.03;5050584;28;20648;-69
2022/04/17 02:31:04;;;;;;;24.70;16.27;;;;;;;1.87;82.94;103425.47;5064079;28;20201;-69
2022/04/17 02:33:30;;;;;;;24.87;16.80;;;;;;;1.86;82.50;103419.53;5060773;28;20268;-70
2022/04/17 02:35:56;;;;;;;29.30;17.00;;;;;;;1.87;81.96;103420.41;5066400;28;20214;-70
2022/04/17 02:38:22;;;;;;;25.33;16.13;;;;;;;1.80;82.88;103421.50;5051752;28;20212;-70
2022/04/17 02:40:47;;;;;;;23.27;15.10;;;;;;;1.75;82.14;103415.09;5049911;28;20220;-70
2022/04/17 02:43:13;;;;;;;24.47;15.97;;;;;;;1.76;81.56;103416.00;5051170;28;20255;-70
2022/04/17 02:45:38;;;;;;;23.37;16.03;;;;;;;1.61;82.62;103412.88;5048394;28;20220;-69
2022/04/17 02:48:04;;;;;;;21.23;14.67;;;;;;;1.61;82.28;103412.00;5050751;28;20300;-70
2022/04/17 02:50:29;;;;;;;23.13;14.73;;;;;;;1.62;81.66;103417.22;5050941;28;20186;-70
2022/04/17 02:52:55;;;;;;;24.40;15.40;;;;;;;1.58;82.56;103412.59;5050793;28;20718;-70
2022/04/17 02:55:21;;;;;;;24.40;14.70;;;;;;;1.56;81.92;103421.66;5066359;28;20217;-70
2022/04/17 02:57:46;;;;;;;23.83;14.67;;;;;;;1.55;81.93;103409.78;5049569;28;20194;-69
2022/04/17 03:00:12;;;;;;;22.80;15.17;;;;;;;1.51;82.30;103414.41;5050821;28;20225;-70
2022/04/17 03:05:36;;;;;;;22.10;14.40;;;;;;;1.40;82.18;103412.44;5050719;28;20229;-70
2022/04/17 03:08:05;;;;;;;24.00;15.70;;;;;;;1.36;82.66;103403.69;5050995;28;20301;-70
2022/04/17 03:10:32;;;;;;;22.77;15.73;;;;;;;1.33;83.55;103400.88;5065861;28;20254;-70
2022/04/17 03:12:57;;;;;;;22.83;15.10;;;;;;;1.34;83.55;103405.19;5049683;28;20725;-69
2022/04/17 03:15:23;;;;;;;23.07;15.60;;;;;;;1.25;83.83;103400.88;5049876;28;20218;-70
2022/04/17 03:17:49;;;;;;;24.53;15.97;;;;;;;1.31;82.37;103392.28;5050543;28;20186;-69
2022/04/17 03:20:14;;;;;;;24.17;16.03;;;;;;;1.27;82.55;103399.38;5050170;28;20235;-69
2022/04/17 03:22:41;;;;;;;26.30;16.60;;;;;;;1.16;82.71;103403.41;5065782;28;20264;-70
2022/04/17 03:25:07;;;;;;;25.33;17.20;;;;;;;1.11;82.46;103404.59;5048961;28;20213;-69
2022/04/17 03:27:33;;;;;;;24.93;16.40;;;;;;;1.18;82.61;103401.91;5050176;28;20237;-70
2022/04/17 03:29:59;;;;;;;29.13;17.97;;;;;;;1.11;83.48;103407.13;5050679;28;20813;-70
2022/04/17 03:32:24;;;;;;;32.83;20.00;;;;;;;1.15;83.51;103395.69;5050587;28;20220;-70
2022/04/17 03:34:50;;;;;;;35.27;19.53;;;;;;;1.06;83.56;103395.66;5050148;28;20241;-70
2022/04/17 03:37:15;;;;;;;39.93;22.30;;;;;;;1.10;82.98;103392.69;5049897;28;20197;-70
2022/04/17 03:39:41;;;;;;;45.07;23.30;;;;;;;1.02;83.27;103393.59;5049504;28;20189;-70
2022/04/17 03:42:07;;;;;;;48.17;24.83;;;;;;;1.02;83.63;103387.66;5049680;28;20208;-69
2022/04/17 03:44:33;;;;;;;53.37;26.20;;;;;;;0.99;83.63;103398.34;5049800;28;20217;-70
2022/04/17 03:46:58;;;;;;;57.40;27.87;;;;;;;0.99;84.15;103403.38;5050212;28;20206;-70
2022/04/17 03:49:24;;;;;;;48.47;26.47;;;;;;;1.00;84.58;103399.25;5050008;28;20209;-70
2022/04/17 03:51:49;;;;;;;50.03;26.07;;;;;;;0.98;84.54;103411.69;5050487;28;20185;-69
2022/04/17 03:54:14;;;;;;;46.67;24.07;;;;;;;0.93;84.18;103405.31;5048519;28;20244;-69
2022/04/17 03:56:40;;;;;;;48.30;24.50;;;;;;;0.95;84.28;103410.47;5049732;28;20186;-69
2022/04/17 03:59:05;;;;;;;47.80;24.63;;;;;;;0.88;83.68;103408.09;5048307;28;20302;-69
2022/04/17 04:01:30;;;;;;;40.23;22.57;;;;;;;0.92;84.12;103402.63;5050260;28;20190;-69
2022/04/17 04:03:56;;;;;;;39.20;20.87;;;;;;;0.77;83.94;103396.09;5050037;28;20595;-69
2022/04/17 04:06:22;;;;;;;44.73;22.73;;;;;;;0.77;84.03;103398.59;5049158;28;20233;-69
2022/04/17 04:08:49;;;;;;;45.70;22.77;;;;;;;0.75;84.13;103406.00;5048577;28;20217;-68
2022/04/17 04:11:15;;;;;;;48.63;23.60;;;;;;;0.77;84.45;103396.09;5049203;28;20196;-69
2022/04/17 04:13:42;;;;;;;42.03;23.63;;;;;;;0.84;83.93;103395.94;5049670;28;20219;-69
2022/04/17 04:16:07;;;;;;;44.33;23.97;;;;;;;0.80;83.94;103397.28;5048983;28;20363;-69
2022/04/17 04:18:32;;;;;;;41.00;22.93;;;;;;;0.79;84.32;103392.97;5065272;28;20273;-69
2022/04/17 04:20:58;;;;;;;37.50;21.87;;;;;;;0.75;84.87;103390.88;5047994;28;20177;-69
2022/04/17 04:23:23;;;;;;;33.37;20.53;;;;;;;0.79;85.32;103387.94;5049095;28;20194;-69
2022/04/17 04:25:48;;;;;;;39.43;22.13;;;;;;;0.81;84.58;103391.47;5049238;28;20225;-69
2022/04/17 04:30:58;;;;;;;42.60;23.37;;;;;;;0.70;85.00;103398.72;5049518;28;20197;-69
2022/04/17 04:33:23;;;;;;;46.93;25.10;;;;;;;0.69;83.98;103397.81;5048729;28;20277;-69
2022/04/17 04:35:48;;;;;;;52.93;24.33;;;;;;;0.71;85.25;103397.97;5048202;28;20209;-69
2022/04/17 04:38:14;;;;;;;45.87;23.53;;;;;;;0.80;84.75;103398.88;5048772;28;20184;-69
2022/04/17 04:40:40;;;;;;;40.43;22.70;;;;;;;0.81;84.68;103396.53;5047974;28;20227;-69
2022/04/17 04:43:05;;;;;;;45.80;23.40;;;;;;;0.76;84.21;103407.78;5049121;28;20193;-68
2022/04/17 04:48:15;;;;;;;41.60;23.03;;;;;;;0.71;84.41;103405.53;5047888;28;20217;-69
2022/04/17 04:50:41;;;;;;;39.60;23.03;;;;;;;0.77;84.14;103413.72;5046046;28;20209;-69
2022/04/17 04:53:08;;;;;;;41.10;22.53;;;;;;;0.82;84.01;103413.44;5049058;28;20742;-69
2022/04/17 04:55:33;;;;;;;40.60;22.83;;;;;;;0.88;84.71;103410.63;5048430;28;20645;-69
2022/04/17 04:58:01;;;;;;;38.00;22.67;;;;;;;0.95;85.31;103410.47;5049186;28;20264;-69
2022/04/17 05:00:26;;;;;;;33.17;21.30;;;;;;;1.03;85.04;103404.56;5048569;28;20192;-69
2022/04/17 05:02:51;;;;;;;36.60;23.37;;;;;;;1.07;86.04;103406.66;5047682;28;20686;-69
2022/04/17 05:05:17;;;;;;;35.90;20.93;;;;;;;1.09;86.32;103402.66;5046840;28;20205;-69
2022/04/17 05:07:42;;;;;;;33.20;20.60;;;;;;;1.19;85.92;103407.88;5048560;28;20259;-69
2022/04/17 05:10:08;;;;;;;31.60;21.10;;;;;;;1.28;85.12;103414.66;5064482;28;20189;-69
2022/04/17 05:12:33;;;;;;;29.30;19.33;;;;;;;1.39;86.00;103418.25;5048518;28;20192;-69
2022/04/17 05:14:59;;;;;;;35.93;19.90;;;;;;;1.51;85.60;103416.91;5047345;28;20215;-69
2022/04/17 05:17:25;;;;;;;29.07;19.30;;;;;;;1.53;85.37;103423.00;5048407;28;20300;-69
2022/04/17 05:19:50;;;;;;;30.40;18.73;;;;;;;1.60;85.54;103420.34;5047017;28;20835;-69
2022/04/17 05:22:16;;;;;;;30.13;18.70;;;;;;;1.72;85.50;103424.91;5048359;28;20194;-69
2022/04/17 05:24:46;;;;;;;27.57;19.17;;;;;;;1.70;85.54;103433.97;5048416;28;20209;-69
2022/04/17 05:27:12;;;;;;;30.30;18.53;;;;;;;1.85;85.54;103432.91;5048828;28;20213;-69
2022/04/17 05:29:39;;;;;;;26.87;18.00;;;;;;;2.04;85.27;103428.88;5047073;28;20185;-69
2022/04/17 05:32:05;;;;;;;30.13;18.50;;;;;;;2.26;86.30;103427.59;5048780;28;20221;-69
2022/04/17 05:34:31;;;;;;;23.97;18.07;;;;;;;2.46;87.26;103424.41;5060628;28;20217;-69
2022/04/17 05:36:56;;;;;;;23.23;17.87;;;;;;;2.59;86.28;103428.22;5054685;28;20609;-69
2022/04/17 05:39:22;;;;;;;26.30;18.00;;;;;;;2.82;87.40;103421.09;5046254;28;20197;-69
2022/04/17 05:41:47;;;;;;;28.27;19.33;;;;;;;2.92;86.69;103420.28;5052508;28;20209;-69
2022/04/17 05:44:13;;;;;;;25.67;18.40;;;;;;;3.06;86.27;103419.88;5052316;28;20193;-70
2022/04/17 05:46:41;;;;;;;30.37;20.20;;;;;;;3.17;86.41;103419.25;5052006;28;20237;-69
2022/04/17 05:49:07;;;;;;;25.83;19.07;;;;;;;3.37;86.30;103422.81;5052468;28;20189;-69
2022/04/17 05:51:33;;;;;;;29.00;20.27;;;;;;;3.50;85.97;103419.72;5049871;28;20555;-69
2022/04/17 05:54:00;;;;;;;29.03;18.90;;;;;;;3.60;85.11;103417.22;5052407;28;20252;-69
2022/04/17 05:56:26;;;;;;;27.97;20.40;;;;;;;3.77;84.86;103410.34;5050207;28;20193;-69
2022/04/17 05:58:51;;;;;;;32.17;20.33;;;;;;;4.00;83.42;103413.25;5052424;28;20178;-69
2022/04/17 06:01:17;;;;;;;30.07;19.80;;;;;;;4.02;83.54;103411.75;5052011;28;20379;-69
2022/04/17 06:03:42;;;;;;;30.03;20.07;;;;;;;4.21;82.28;103412.56;5052140;28;20185;-70
2022/04/17 06:06:07;;;;;;;27.43;18.70;;;;;;;4.45;82.12;103407.03;5050634;28;20290;-69
2022/04/17 06:08:32;;;;;;;25.37;17.97;;;;;;;4.58;81.21;103416.56;5049716;28;20236;-69
2022/04/17 06:10:59;;;;;;;22.67;15.50;;;;;;;4.67;80.21;103402.13;5052137;28;20189;-69
2022/04/17 06:13:25;;;;;;;21.33;15.43;;;;;;;4.81;79.81;103407.59;5051315;28;20259;-69
2022/04/17 06:15:50;;;;;;;25.20;15.80;;;;;;;4.97;79.19;103404.69;5051858;28;20293;-69
2022/04/17 06:18:15;;;;;;;21.83;15.37;;;;;;;5.09;77.97;103400.59;5051302;28;20197;-69
2022/04/17 06:20:41;;;;;;;20.50;14.37;;;;;;;5.15;76.20;103399.44;5050985;28;20254;-69
2022/04/17 06:23:06;;;;;;;22.13;14.43;;;;;;;5.43;76.20;103397.53;5050334;28;20174;-69
2022/04/17 06:25:32;;;;;;;19.07;12.80;;;;;;;5.70;75.98;103395.53;5050978;28;20266;-70
2022/04/17 06:27:57;;;;;;;14.33;10.80;;;;;;;5.80;73.99;103394.63;5052154;28;20697;-68
2022/04/17 06:30:23;;;;;;;16.17;11.00;;;;;;;5.96;72.41;103390.88;5051554;28;20289;-69
2022/04/17 06:32:49;;;;;;;15.20;10.77;;;;;;;6.12;72.55;103391.31;5050674;28;20188;-69
2022/04/17 06:35:15;;;;;;;16.30;10.77;;;;;;;6.35;71.78;103393.97;5050979;28;20210;-69
2022/04/17 06:37:44;;;;;;;15.43;10.17;;;;;;;6.58;69.83;103393.22;5050449;28;20249;-69
2022/04/17 06:40:10;;;;;;;13.00;10.03;;;;;;;6.66;69.80;103382.81;5051909;28;20248;-69
2022/04/17 06:42:35;;;;;;;11.87;9.67;;;;;;;6.70;68.66;103384.84;5042150;28;20206;-69
2022/04/17 06:45:01;;;;;;;10.47;8.13;;;;;;;6.65;66.83;103380.16;5031741;28;20258;-69
2022/04/17 06:47:29;;;;;;;11.40;8.67;;;;;;;6.82;66.39;103379.78;5031463;28;20446;-70
2022/04/17 06:49:55;;;;;;;12.20;9.07;;;;;;;7.10;65.89;103378.50;5031442;28;20182;-70
2022/04/17 06:52:20;;;;;;;12.67;8.77;;;;;;;7.44;65.05;103382.72;5030438;28;20239;-69
2022/04/17 06:54:45;;;;;;;11.87;8.17;;;;;;;7.53;64.54;103375.75;5046711;28;20214;-69
2022/04/17 06:57:11;;;;;;;10.70;8.10;;;;;;;7.65;63.37;103374.97;5046129;28;20553;-69
2022/04/17 06:59:36;;;;;;;9.40;7.43;;;;;;;7.71;63.11;103375.41;5040833;28;20709;-69
2022/04/17 07:02:01;;;;;;;11.60;7.73;;;;;;;7.89;61.78;103371.63;5051394;28;20655;-70
2022/04/17 07:04:27;;;;;;;11.63;7.87;;;;;;;8.04;61.39;103375.25;5050549;28;20266;-69
2022/04/17 07:06:53;;;;;;;11.27;7.53;;;;;;;8.34;61.21;103366.31;5051273;28;20304;-69
2022/04/17 07:09:18;;;;;;;11.10;7.23;;;;;;;8.50;60.22;103361.47;5050876;28;20278;-69
2022/04/17 07:11:43;;;;;;;9.43;7.13;;;;;;;8.36;59.19;103363.09;5051377;28;20177;-70
2022/04/17 07:14:12;;;;;;;8.77;6.70;;;;;;;8.57;58.95;103358.56;5050538;28;20193;-69
2022/04/17 07:16:37;;;;;;;10.67;7.20;;;;;;;8.50;59.51;103359.81;5040018;28;20191;-69
2022/04/17 07:19:02;;;;;;;10.87;7.40;;;;;;;8.59;59.03;103354.41;5031299;28;20186;-69
2022/04/17 07:21:28;;;;;;;10.97;7.13;;;;;;;9.11;58.48;103351.97;5030942;28;20182;-70
2022/04/17 07:23:53;;;;;;;9.47;6.83;;;;;;;9.21;57.05;103344.16;5031107;28;20566;-69
2022/04/17 07:26:18;;;;;;;7.80;6.40;;;;;;;9.35;56.69;103341.69;5029384;28;20841;-69
2022/04/17 07:28:46;;;;;;;10.83;6.70;;;;;;;9.51;55.17;103346.09;5031020;28;20198;-70
2022/04/17 07:31:11;;;;;;;10.97;7.00;;;;;;;9.43;55.47;103339.59;5029098;28;20218;-69
2022/04/17 07:33:36;;;;;;;10.17;6.93;;;;;;;9.59;55.46;103335.56;5049027;28;20732;-69
2022/04/17 07:36:02;;;;;;;8.07;6.43;;;;;;;9.87;54.49;103335.63;5047606;28;20584;-70
2022/04/17 07:38:27;;;;;;;9.67;6.57;;;;;;;10.01;53.96;103330.59;5048890;28;20663;-69
2022/04/17 07:40:53;;;;;;;6.80;5.80;;;;;;;10.14;50.96;103338.22;5049853;28;20174;-70
2022/04/17 07:43:18;;;;;;;7.47;5.00;;;;;;;10.37;50.86;103330.25;5052451;28;20244;-70
2022/04/17 07:45:43;;;;;;;7.67;5.60;;;;;;;10.67;49.87;103329.53;5050197;28;20210;-69
2022/04/17 07:48:09;;;;;;;5.73;4.87;;;;;;;10.76;49.29;103332.63;5055727;28;20276;-69
2022/04/17 07:50:35;;;;;;;8.60;5.00;;;;;;;10.49;50.29;103322.44;5051003;28;20605;-69
2022/04/17 07:53:00;;;;;;;8.13;4.73;;;;;;;10.75;49.96;103330.88;5048850;28;20698;-69
2022/04/17 07:55:26;;;;;;;6.40;4.80;;;;;;;11.22;48.95;103321.66;5049137;28;20245;-69
2022/04/17 08:00:42;;;;;;;6.93;5.30;;;;;;;11.03;49.79;103321.41;5049541;28;20205;-69
2022/04/17 08:03:10;;;;;;;11.00;5.90;;;;;;;11.29;48.84;103320.34;5051931;28;20271;-69
2022/04/17 08:05:39;;;;;;;8.20;6.20;;;;;;;11.80;47.99;103312.97;5052616;28;20776;-69
2022/04/17 08:08:06;;;;;;;5.67;4.17;;;;;;;11.75;45.61;103309.28;5048905;28;20741;-69
2022/04/17 08:10:32;;;;;;;7.10;4.13;;;;;;;12.12;42.58;103306.16;5047983;28;20193;-70
2022/04/17 08:12:57;;;;;;;6.53;3.90;;;;;;;12.47;42.76;103298.59;5048358;28;20186;-70
2022/04/17 08:15:22;;;;;;;6.23;4.47;;;;;;;12.55;42.55;103292.16;5025914;28;20230;-69
2022/04/17 08:17:48;;;;;;;7.57;4.27;;;;;;;12.98;41.53;103299.47;5042444;28;20196;-70
2022/04/17 08:20:13;;;;;;;7.27;4.30;;;;;;;12.40;42.82;103295.63;5049863;28;20228;-70
2022/04/17 08:22:38;;;;;;;5.93;4.00;;;;;;;12.84;41.55;103291.03;5049658;28;20201;-70
2022/04/17 08:25:04;;;;;;;5.73;3.83;;;;;;;12.59;40.57;103296.63;5046832;28;20213;-69
2022/04/17 08:27:30;;;;;;;7.53;4.27;;;;;;;13.24;42.63;103288.72;5047277;28;20266;-70
2022/04/17 08:29:55;;;;;;;6.23;3.60;;;;;;;13.15;40.91;103290.84;5052595;28;20276;-69
2022/04/17 08:32:21;;;;;;;7.03;4.83;;;;;;;13.26;41.88;103284.56;5055398;28;20547;-69
2022/04/17 08:34:46;;;;;;;5.43;4.00;;;;;;;13.54;40.69;103291.06;5048536;28;20290;-69
2022/04/17 08:37:11;;;;;;;3.80;3.07;;;;;;;14.04;38.67;103277.94;5056181;28;20186;-70
2022/04/17 08:39:37;;;;;;;4.97;2.60;;;;;;;14.15;37.66;103279.25;5048373;28;20198;-69
2022/04/17 08:42:05;;;;;;;6.63;3.23;;;;;;;13.60;37.33;103277.59;5045847;28;20185;-69
2022/04/17 08:44:30;;;;;;;3.43;2.43;;;;;;;13.76;38.59;103277.50;5046858;28;20213;-69
2022/04/17 08:46:56;;;;;;;2.93;1.93;;;;;;;13.22;35.69;103283.50;5045461;28;20575;-70
2022/04/17 08:49:23;;;;;;;4.33;2.00;;;;;;;14.03;35.46;103274.44;5048591;28;20178;-70
2022/04/17 08:51:49;;;;;;;2.57;2.00;;;;;;;14.12;35.65;103279.13;5045550;28;20211;-70
2022/04/17 08:54:16;;;;;;;2.20;1.63;;;;;;;14.14;34.76;103269.78;5048969;28;20263;-70
2022/04/17 08:56:42;;;;;;;3.63;2.00;;;;;;;13.73;33.90;103262.78;5048442;28;20757;-70
2022/04/17 08:59:07;;;;;;;4.07;1.60;;;;;;;14.05;33.96;103259.06;5049398;28;20277;-70
2022/04/17 09:01:36;;;;;;;2.60;1.40;;;;;;;14.61;33.64;103262.41;5047251;28;20269;-69
2022/04/17 09:04:02;;;;;;;1.57;1.43;;;;;;;14.19;33.78;103258.88;5048884;28;20194;-69
2022/04/17 09:06:29;;;;;;;2.70;1.80;;;;;;;14.66;33.32;103255.75;5048270;28;20308;-70
2022/04/17 09:09:06;;;;;;;2.10;1.30;;;;;;;14.76;34.40;103256.19;5049108;28;20190;-70
2022/04/17 09:11:33;;;;;;;4.57;2.17;;;;;;;14.75;34.42;103245.81;5049033;28;20197;-70
2022/04/17 09:14:01;;;;;;;3.00;1.40;;;;;;;14.58;32.65;103239.94;5045920;28;20198;-70
2022/04/17 09:16:28;;;;;;;4.63;1.83;;;;;;;14.90;33.18;103231.81;5048763;28;20197;-69
2022/04/17 09:18:55;;;;;;;4.33;2.20;;;;;;;15.38;33.92;103240.66;5048945;28;20189;-70
2022/04/17 09:21:32;;;;;;;2.17;1.50;;;;;;;15.13;32.31;103231.03;5051735;28;20674;-70
2022/04/17 09:24:26;;;;;;;3.67;1.90;;;;;;;14.51;32.47;103231.91;5046124;28;20271;-70
2022/04/17 09:26:55;;;;;;;2.90;1.30;;;;;;;15.55;31.87;103221.50;5048716;28;20217;-70
2022/04/17 09:29:25;;;;;;;1.63;1.10;;;;;;;15.83;31.52;103217.41;5050901;28;20272;-70
2022/04/17 09:32:10;;;;;;;2.93;1.30;;;;;;;15.43;31.67;103210.72;5053019;28;20181;-70
2022/04/17 09:34:56;;;;;;;2.03;1.50;;;;;;;15.52;31.89;103213.66;5048548;28;20303;-69
2022/04/17 09:37:27;;;;;;;2.33;1.40;;;;;;;14.91;31.96;103207.78;5048396;28;20284;-70
2022/04/17 09:40:04;;;;;;;2.77;1.80;;;;;;;15.42;32.45;103206.38;5049717;28;20190;-70
2022/04/17 09:42:29;;;;;;;3.77;1.90;;;;;;;15.70;30.96;103199.69;5052036;28;20280;-70
2022/04/17 09:44:55;;;;;;;1.97;1.40;;;;;;;15.58;30.99;103209.59;5052301;28;20476;-70
2022/04/17 09:47:23;;;;;;;1.90;1.40;;;;;;;16.50;31.14;103198.25;5051991;28;20217;-70
2022/04/17 09:50:08;;;;;;;2.83;1.70;;;;;;;16.71;29.98;103193.78;5052474;28;20925;-70
2022/04/17 09:52:43;;;;;;;3.40;1.43;;;;;;;16.40;30.54;103192.72;5050436;28;20201;-70
2022/04/17 09:55:09;;;;;;;2.20;1.60;;;;;;;16.86;30.70;103189.06;5050708;28;20206;-70
2022/04/17 09:57:36;;;;;;;2.53;1.70;;;;;;;17.70;30.05;103181.31;5051913;28;20270;-70
2022/04/17 10:00:15;;;;;;;1.50;1.30;;;;;;;17.46;30.57;103179.72;5051699;28;20190;-71
2022/04/17 10:02:46;;;;;;;2.37;1.37;;;;;;;17.31;30.00;103177.53;5052116;28;20212;-71
2022/04/17 10:05:14;;;;;;;2.20;1.47;;;;;;;17.45;29.72;103175.38;5052287;28;20570;-70
2022/04/17 10:07:41;;;;;;;3.03;1.60;;;;;;;17.99;28.68;103167.41;5051370;28;20213;-70
2022/04/17 10:10:08;;;;;;;1.90;1.40;;;;;;;17.38;29.73;103156.16;5050436;28;20205;-70
2022/04/17 10:12:37;;;;;;;1.57;1.40;;;;;;;17.76;29.81;103150.38;5052551;28;20276;-70
2022/04/17 10:15:06;;;;;;;1.90;1.37;;;;;;;17.60;29.34;103145.56;5051697;28;20267;-70
2022/04/17 10:17:32;;;;;;;1.83;1.40;;;;;;;17.48;28.07;103146.97;5050306;28;20713;-70
2022/04/17 10:20:03;;;;;;;3.17;1.40;;;;;;;17.78;28.38;103137.44;5049620;28;20648;-70
2022/04/17 10:22:33;;;;;;;1.60;1.37;;;;;;;17.54;28.17;103131.59;5052538;28;20681;-70
2022/04/17 10:24:59;;;;;;;2.53;1.57;;;;;;;17.59;29.48;103136.06;5051162;28;20210;-70
2022/04/17 10:27:48;;;;;;;1.50;1.37;;;;;;;18.15;28.68;103122.88;5050864;28;20210;-70
2022/04/17 10:30:16;;;;;;;2.17;1.60;;;;;;;18.66;28.52;103123.28;5052035;28;20174;-70
2022/04/17 10:32:44;;;;;;;1.83;1.30;;;;;;;19.73;26.31;103111.72;5050509;28;20239;-70
2022/04/17 10:35:48;;;;;;;2.10;1.40;;;;;;;19.09;27.16;103111.28;5049292;28;20209;-70
2022/04/17 10:38:22;;;;;;;2.43;2.07;;;;;;;18.55;27.25;103110.06;5048849;28;20185;-70
2022/04/17 10:40:54;;;;;;;2.00;1.53;;;;;;;19.42;27.75;103103.31;5050428;28;20262;-69
2022/04/17 10:43:20;;;;;;;1.67;1.20;;;;;;;19.37;26.84;103097.16;5048218;28;20255;-69
2022/04/17 10:46:12;;;;;;;1.30;1.10;;;;;;;19.87;26.63;103094.66;5046630;28;20329;-69
2022/04/17 10:48:58;;;;;;;1.43;1.20;;;;;;;18.40;27.18;103095.84;5066178;28;20201;-69
2022/04/17 10:51:31;;;;;;;2.90;1.53;;;;;;;18.31;25.65;103096.47;5051208;28;20194;-69
2022/04/17 10:54:05;;;;;;;3.77;2.50;;;;;;;18.32;27.38;103093.03;5050870;28;20178;-69
2022/04/17 10:56:35;;;;;;;2.13;1.30;;;;;;;18.73;26.50;103086.22;5051384;28;20272;-69
2022/04/17 10:59:05;;;;;;;1.87;1.23;;;;;;;18.27;26.45;103092.06;5049153;28;20200;-69
2022/04/17 11:01:40;;;;;;;2.53;1.40;;;;;;;18.33;27.16;103081.00;5048741;28;20204;-69
2022/04/17 11:04:39;;;;;;;2.30;1.47;;;;;;;19.33;28.78;103077.13;5050420;28;20181;-70
2022/04/17 11:07:05;;;;;;;1.43;1.10;;;;;;;18.77;27.94;103078.56;5015116;28;20748;-69
2022/04/17 11:09:33;;;;;;;1.47;0.90;;;;;;;18.84;27.47;103077.81;5049862;28;20206;-69
2022/04/17 11:12:06;;;;;;;2.97;1.20;;;;;;;19.66;26.13;103068.25;5050598;28;20185;-70
2022/04/17 11:14:32;;;;;;;1.87;1.00;;;;;;;18.48;26.42;103065.75;5049716;28;20282;-69
2022/04/17 11:17:03;;;;;;;1.57;1.10;;;;;;;18.81;27.32;103064.78;5050575;28;20662;-69
2022/04/17 11:19:31;;;;;;;1.10;0.90;;;;;;;18.42;26.53;103061.31;5050094;28;20189;-69
2022/04/17 11:22:02;;;;;;;1.50;1.20;;;;;;;19.01;26.61;103058.28;5050396;28;20196;-70
2022/04/17 11:24:30;;;;;;;1.10;1.00;;;;;;;17.83;27.27;103058.09;5051017;28;20210;-69
2022/04/17 11:26:55;;;;;;;2.47;0.90;;;;;;;18.55;26.53;103049.47;5050464;28;20214;-70
2022/04/17 11:29:37;;;;;;;1.30;0.90;;;;;;;17.81;27.68;103028.63;5050256;28;20557;-69
2022/04/17 11:32:25;;;;;;;1.10;0.93;;;;;;;18.33;26.39;103031.69;5049875;28;20639;-70
2022/04/17 11:34:53;;;;;;;1.40;0.87;;;;;;;18.26;26.56;103040.13;5049143;28;20213;-70
2022/04/17 11:37:23;;;;;;;1.00;0.80;;;;;;;18.26;26.21;103021.97;5048677;28;20173;-70